Time;durP1;ratioP1;P1;durP2;ratioP2;P2;SDS_P1;SDS_P2;PMS_P1;PMS_P2;Temp;Humidity;BMP_temperature;BMP_pressure;BME280_temperature;BME280_humidity;BME280_pressure;Samples;Min_cycle;Max_cycle;Signal;HPM_P1;HPM_P2
2021/06/07 00:01:24;;;;;;;27.05;20.27;;;;;;;;;;5045231;28;20198;-88
2021/06/07 00:04:09;;;;;;;25.33;20.38;;;;;;;;;;5040797;28;20017;-90
2021/06/07 00:06:55;;;;;;;25.80;19.83;;;;;;;;;;5039460;28;20052;-89
2021/06/07 00:09:40;;;;;;;27.98;20.15;;;;;;;;;;5050340;28;20025;-90
2021/06/07 00:12:25;;;;;;;28.20;22.05;;;;;;;;;;5043897;28;20398;-91
2021/06/07 00:15:13;;;;;;;28.73;22.30;;;;;;;;;;5047475;28;20027;-91
2021/06/07 00:17:58;;;;;;;32.95;20.75;;;;;;;;;;5039772;28;20382;-91
2021/06/07 00:20:45;;;;;;;29.20;21.77;;;;;;;;;;5038591;28;20048;-90
2021/06/07 00:23:30;;;;;;;29.08;21.85;;;;;;;;;;5049216;28;20530;-90
2021/06/07 00:26:16;;;;;;;27.15;20.75;;;;;;;;;;5052366;28;20762;-90
2021/06/07 00:29:02;;;;;;;27.10;21.17;;;;;;;;;;5038416;28;20027;-90
2021/06/07 00:31:47;;;;;;;30.00;20.92;;;;;;;;;;5044116;28;20021;-90
2021/06/07 00:34:32;;;;;;;27.00;20.50;;;;;;;;;;5045901;28;20028;-89
2021/06/07 00:37:18;;;;;;;28.60;21.17;;;;;;;;;;5043354;28;20025;-88
2021/06/07 00:40:05;;;;;;;30.33;21.88;;;;;;;;;;5033219;28;20052;-88
2021/06/07 00:42:51;;;;;;;31.77;22.67;;;;;;;;;;5032519;28;20082;-89
2021/06/07 00:45:37;;;;;;;29.83;23.00;;;;;;;;;;5038611;28;20032;-87
2021/06/07 00:48:22;;;;;;;31.10;21.27;;;;;;;;;;5037627;28;20029;-88
2021/06/07 00:51:08;;;;;;;37.03;24.38;;;;;;;;;;5051989;28;20201;-89
2021/06/07 00:53:54;;;;;;;28.15;21.50;;;;;;;;;;5039391;28;20135;-89
2021/06/07 00:56:39;;;;;;;29.88;21.40;;;;;;;;;;5035695;28;20584;-88
2021/06/07 00:59:24;;;;;;;30.88;22.58;;;;;;;;;;5034084;28;20155;-89
2021/06/07 01:02:10;;;;;;;27.25;20.02;;;;;;;;;;5048685;28;20091;-89
2021/06/07 01:04:55;;;;;;;28.65;21.92;;;;;;;;;;5047524;28;20482;-90
2021/06/07 01:07:40;;;;;;;31.42;21.08;;;;;;;;;;5041754;28;20041;-90
2021/06/07 01:10:26;;;;;;;29.88;22.48;;;;;;;;;;5039111;28;20028;-90
2021/06/07 01:13:13;;;;;;;30.63;22.13;;;;;;;;;;5041530;28;20028;-90
2021/06/07 01:15:58;;;;;;;27.05;20.88;;;;;;;;;;5039744;28;20026;-89
2021/06/07 01:18:45;;;;;;;28.35;20.85;;;;;;;;;;5034971;28;20108;-89
2021/06/07 01:21:30;;;;;;;29.83;21.52;;;;;;;;;;5042335;28;20045;-90
2021/06/07 01:24:16;;;;;;;30.65;21.67;;;;;;;;;;5035047;28;20040;-89
2021/06/07 01:27:01;;;;;;;30.65;21.27;;;;;;;;;;5036417;28;20626;-88
2021/06/07 01:29:47;;;;;;;28.83;21.13;;;;;;;;;;5028076;28;20036;-88
2021/06/07 01:32:32;;;;;;;29.58;22.08;;;;;;;;;;5033451;28;20029;-89
2021/06/07 01:35:17;;;;;;;25.60;19.65;;;;;;;;;;5035969;28;20030;-89
2021/06/07 01:38:03;;;;;;;30.42;22.40;;;;;;;;;;5042717;28;20031;-88
2021/06/07 01:40:51;;;;;;;30.58;21.98;;;;;;;;;;5035915;28;20021;-89
2021/06/07 01:43:37;;;;;;;33.45;20.88;;;;;;;;;;5031510;28;20032;-88
2021/06/07 01:46:22;;;;;;;29.23;22.25;;;;;;;;;;5033169;28;20021;-89
2021/06/07 01:49:07;;;;;;;30.55;20.42;;;;;;;;;;5031087;28;20154;-88
2021/06/07 01:51:52;;;;;;;30.15;22.13;;;;;;;;;;5042670;28;20020;-89
2021/06/07 01:54:37;;;;;;;35.25;21.85;;;;;;;;;;5033711;28;20033;-88
2021/06/07 01:57:23;;;;;;;34.63;21.95;;;;;;;;;;5029681;28;20036;-88
2021/06/07 02:00:11;;;;;;;36.08;22.00;;;;;;;;;;5032123;28;20027;-88
2021/06/07 02:02:56;;;;;;;35.20;23.13;;;;;;;;;;5035634;28;20024;-89
2021/06/07 02:05:43;;;;;;;34.40;21.95;;;;;;;;;;5038846;28;20631;-89
2021/06/07 02:08:30;;;;;;;34.22;23.45;;;;;;;;;;5043218;28;20335;-89
2021/06/07 02:11:18;;;;;;;31.52;22.63;;;;;;;;;;5041902;28;20353;-88
2021/06/07 02:14:04;;;;;;;28.90;22.05;;;;;;;;;;5044461;28;20518;-87
2021/06/07 02:16:50;;;;;;;32.97;22.42;;;;;;;;;;5046903;28;20040;-90
2021/06/07 02:19:35;;;;;;;31.08;21.75;;;;;;;;;;5049431;28;20106;-90
2021/06/07 02:22:20;;;;;;;34.42;23.08;;;;;;;;;;5044900;28;20031;-89
2021/06/07 02:25:06;;;;;;;33.38;22.60;;;;;;;;;;5043592;28;20020;-89
2021/06/07 02:27:52;;;;;;;35.13;22.55;;;;;;;;;;5035489;28;20017;-90
2021/06/07 02:30:37;;;;;;;31.08;20.48;;;;;;;;;;5043956;28;20020;-90
2021/06/07 02:33:22;;;;;;;29.88;21.38;;;;;;;;;;5041523;28;20025;-91
2021/06/07 02:36:08;;;;;;;32.75;23.83;;;;;;;;;;5050292;28;20080;-90
2021/06/07 02:38:54;;;;;;;33.13;22.52;;;;;;;;;;5057169;28;20021;-89
2021/06/07 02:41:40;;;;;;;32.47;23.73;;;;;;;;;;5039676;28;20112;-89
2021/06/07 02:44:25;;;;;;;34.10;23.42;;;;;;;;;;5050278;28;20021;-89
2021/06/07 02:47:10;;;;;;;37.45;24.02;;;;;;;;;;5031612;28;20448;-88
2021/06/07 02:49:55;;;;;;;36.10;24.95;;;;;;;;;;5026771;28;20063;-88
2021/06/07 02:52:47;;;;;;;40.10;25.42;;;;;;;;;;5035013;28;20075;-89
2021/06/07 02:55:35;;;;;;;37.00;23.80;;;;;;;;;;5047149;28;20413;-88
2021/06/07 02:58:21;;;;;;;35.85;25.35;;;;;;;;;;5034349;28;20093;-88
2021/06/07 03:01:07;;;;;;;37.97;24.20;;;;;;;;;;5035810;28;20018;-89
2021/06/07 03:03:52;;;;;;;39.05;25.85;;;;;;;;;;5034565;28;20090;-88
2021/06/07 03:06:38;;;;;;;42.35;27.08;;;;;;;;;;5047009;28;20104;-89
2021/06/07 03:09:23;;;;;;;36.47;23.48;;;;;;;;;;5047028;28;20056;-89
2021/06/07 03:12:08;;;;;;;38.70;25.58;;;;;;;;;;5050797;28;20103;-89
2021/06/07 03:14:54;;;;;;;37.03;24.58;;;;;;;;;;5052222;28;20052;-87
2021/06/07 03:17:39;;;;;;;40.45;26.63;;;;;;;;;;5058123;28;20061;-88
2021/06/07 03:20:26;;;;;;;38.92;25.55;;;;;;;;;;5044289;28;20072;-88
2021/06/07 03:23:15;;;;;;;41.08;27.63;;;;;;;;;;5045259;28;20025;-87
2021/06/07 03:26:01;;;;;;;38.33;24.85;;;;;;;;;;5052144;28;20021;-87
2021/06/07 03:28:46;;;;;;;37.45;26.17;;;;;;;;;;5047998;28;20017;-87
2021/06/07 03:31:31;;;;;;;41.03;25.48;;;;;;;;;;5038926;28;20075;-88
2021/06/07 03:34:17;;;;;;;37.35;24.83;;;;;;;;;;5047506;28;20098;-88
2021/06/07 03:37:02;;;;;;;37.30;26.58;;;;;;;;;;5061448;28;20100;-88
2021/06/07 03:39:48;;;;;;;42.58;25.75;;;;;;;;;;5052148;28;20717;-86
2021/06/07 03:42:33;;;;;;;44.78;26.85;;;;;;;;;;5050987;28;20021;-87
2021/06/07 03:45:19;;;;;;;40.72;26.38;;;;;;;;;;5037184;28;20426;-87
2021/06/07 03:48:05;;;;;;;42.03;27.08;;;;;;;;;;5040556;28;20024;-88
2021/06/07 03:50:51;;;;;;;40.10;26.65;;;;;;;;;;5041515;28;20517;-88
2021/06/07 03:53:36;;;;;;;39.83;25.55;;;;;;;;;;5037360;28;20092;-88
2021/06/07 03:56:21;;;;;;;41.67;26.70;;;;;;;;;;5041776;28;20017;-88
2021/06/07 03:59:06;;;;;;;36.17;24.75;;;;;;;;;;5039359;28;20031;-88
2021/06/07 04:01:52;;;;;;;39.97;27.17;;;;;;;;;;5022383;28;20356;-87
2021/06/07 04:04:40;;;;;;;42.03;27.55;;;;;;;;;;5041378;28;20021;-87
2021/06/07 04:07:25;;;;;;;40.30;26.35;;;;;;;;;;5045423;28;20017;-89
2021/06/07 04:10:13;;;;;;;42.13;28.55;;;;;;;;;;5041928;28;20025;-89
2021/06/07 04:12:58;;;;;;;41.50;27.80;;;;;;;;;;5050659;28;20052;-89
2021/06/07 04:15:43;;;;;;;40.33;26.90;;;;;;;;;;5040317;28;20063;-89
2021/06/07 04:18:29;;;;;;;39.92;26.52;;;;;;;;;;5035371;28;20033;-88
2021/06/07 04:21:14;;;;;;;37.65;26.20;;;;;;;;;;5038165;28;20037;-90
2021/06/07 04:23:59;;;;;;;40.30;27.33;;;;;;;;;;5043127;28;20009;-89
2021/06/07 04:26:44;;;;;;;39.00;26.33;;;;;;;;;;5032153;28;20048;-89
2021/06/07 04:29:30;;;;;;;35.30;26.05;;;;;;;;;;5029074;28;20112;-89
2021/06/07 04:32:15;;;;;;;36.03;25.13;;;;;;;;;;5036873;28;20021;-89
2021/06/07 04:35:01;;;;;;;35.60;22.70;;;;;;;;;;5050147;28;20048;-88
2021/06/07 04:37:51;;;;;;;30.33;24.08;;;;;;;;;;5039902;28;20048;-89
2021/06/07 04:40:36;;;;;;;;;;;;;;;;;;5029567;28;20057;-89
2021/06/07 04:43:21;;;;;;;31.55;21.52;;;;;;;;;;5048970;28;19951;-89
2021/06/07 04:46:06;;;;;;;39.92;23.65;;;;;;;;;;5037474;28;20054;-89
2021/06/07 04:48:51;;;;;;;32.20;23.75;;;;;;;;;;5048490;28;20027;-87
2021/06/07 04:51:37;;;;;;;32.33;23.15;;;;;;;;;;5025280;28;20043;-88
2021/06/07 04:54:22;;;;;;;32.45;23.25;;;;;;;;;;5054841;28;20141;-88
2021/06/07 04:57:08;;;;;;;30.55;21.70;;;;;;;;;;5038986;28;20302;-86
2021/06/07 04:59:53;;;;;;;27.63;20.48;;;;;;;;;;5051659;28;20016;-86
2021/06/07 05:02:38;;;;;;;32.70;21.35;;;;;;;;;;5027849;28;20024;-88
2021/06/07 05:05:23;;;;;;;32.47;20.88;;;;;;;;;;5042244;28;20021;-86
2021/06/07 05:08:08;;;;;;;30.50;21.92;;;;;;;;;;5038053;28;20028;-87
2021/06/07 05:10:54;;;;;;;26.48;18.52;;;;;;;;;;5036595;28;20021;-86
2021/06/07 05:13:39;;;;;;;28.63;20.13;;;;;;;;;;5038400;28;20021;-88
2021/06/07 05:16:24;;;;;;;26.38;18.92;;;;;;;;;;5041460;28;20542;-87
2021/06/07 05:19:10;;;;;;;32.35;21.60;;;;;;;;;;5047981;28;20024;-88
2021/06/07 05:21:55;;;;;;;31.10;20.27;;;;;;;;;;5041607;28;20024;-89
2021/06/07 05:24:40;;;;;;;28.17;19.48;;;;;;;;;;5042344;28;20382;-88
2021/06/07 05:27:25;;;;;;;30.38;21.00;;;;;;;;;;5053067;28;20054;-87
2021/06/07 05:30:11;;;;;;;33.97;23.77;;;;;;;;;;5029102;28;20025;-87
2021/06/07 05:32:56;;;;;;;34.20;23.52;;;;;;;;;;5042524;28;20032;-92
2021/06/07 05:35:43;;;;;;;34.33;23.83;;;;;;;;;;5028092;28;20412;-84
2021/06/07 05:38:28;;;;;;;32.83;23.63;;;;;;;;;;5037028;28;20430;-84
2021/06/07 05:41:13;;;;;;;29.70;21.88;;;;;;;;;;5038576;28;20021;-83
2021/06/07 05:43:59;;;;;;;29.63;21.38;;;;;;;;;;5024483;28;20024;-84
2021/06/07 05:46:45;;;;;;;34.28;22.75;;;;;;;;;;5047977;28;20024;-84
2021/06/07 05:49:30;;;;;;;35.80;25.40;;;;;;;;;;5029162;28;20020;-84
2021/06/07 05:52:15;;;;;;;33.00;22.15;;;;;;;;;;5037213;28;20021;-85
2021/06/07 05:55:00;;;;;;;38.10;24.48;;;;;;;;;;5038244;28;20044;-85
2021/06/07 05:57:50;;;;;;;32.85;23.00;;;;;;;;;;5037011;28;20024;-86
2021/06/07 06:00:35;;;;;;;;;;;;;;;;;;5035444;28;20276;-83
2021/06/07 06:03:20;;;;;;;32.45;22.42;;;;;;;;;;5040812;28;20274;-85
2021/06/07 06:06:06;;;;;;;29.58;22.33;;;;;;;;;;5034641;28;20039;-91
2021/06/07 06:08:52;;;;;;;33.03;21.70;;;;;;;;;;5039053;28;20479;-86
2021/06/07 06:11:39;;;;;;;30.27;21.95;;;;;;;;;;5017187;28;20021;-87
2021/06/07 06:14:24;;;;;;;35.45;23.55;;;;;;;;;;5032979;28;20491;-86
2021/06/07 06:17:10;;;;;;;30.30;21.70;;;;;;;;;;5034119;28;20024;-86
2021/06/07 06:19:55;;;;;;;28.98;21.42;;;;;;;;;;5046877;28;20682;-85
2021/06/07 06:22:41;;;;;;;29.88;19.92;;;;;;;;;;5044575;28;20036;-82
2021/06/07 06:25:26;;;;;;;42.88;30.48;;;;;;;;;;5031754;28;20472;-81
2021/06/07 06:28:12;;;;;;;32.28;21.55;;;;;;;;;;5028038;28;20017;-80
2021/06/07 06:30:57;;;;;;;27.48;20.20;;;;;;;;;;5035556;28;20500;-80
2021/06/07 06:33:42;;;;;;;27.80;20.42;;;;;;;;;;5046389;28;20039;-80
2021/06/07 06:36:28;;;;;;;28.25;20.55;;;;;;;;;;5029318;28;20029;-79
2021/06/07 06:39:13;;;;;;;32.92;20.52;;;;;;;;;;5036912;28;20033;-82
2021/06/07 06:41:59;;;;;;;29.45;18.75;;;;;;;;;;5036072;28;20033;-82
2021/06/07 06:44:44;;;;;;;30.95;21.45;;;;;;;;;;5034930;28;20024;-81
2021/06/07 06:47:29;;;;;;;27.77;20.45;;;;;;;;;;5035265;28;20059;-82
2021/06/07 06:50:14;;;;;;;27.65;19.90;;;;;;;;;;5046179;28;20107;-81
2021/06/07 06:53:00;;;;;;;30.75;20.67;;;;;;;;;;5035487;28;20056;-81
2021/06/07 06:55:47;;;;;;;25.75;18.77;;;;;;;;;;5053116;28;20478;-83
2021/06/07 06:58:32;;;;;;;27.23;19.33;;;;;;;;;;5040934;28;20032;-81
2021/06/07 07:01:18;;;;;;;53.03;41.70;;;;;;;;;;5036523;28;20360;-81
2021/06/07 07:04:03;;;;;;;30.48;22.73;;;;;;;;;;5040212;28;20016;-81
2021/06/07 07:06:48;;;;;;;23.00;18.00;;;;;;;;;;5035534;28;20044;-83
2021/06/07 07:09:33;;;;;;;29.05;19.88;;;;;;;;;;5035135;28;20021;-79
2021/06/07 07:12:23;;;;;;;29.70;19.23;;;;;;;;;;5032988;28;20040;-82
2021/06/07 07:15:08;;;;;;;;;;;;;;;;;;5048376;28;20111;-86
2021/06/07 07:17:53;;;;;;;29.92;20.15;;;;;;;;;;5040649;28;19915;-85
2021/06/07 07:20:39;;;;;;;26.90;18.90;;;;;;;;;;5038247;28;20423;-85
2021/06/07 07:23:24;;;;;;;25.40;17.80;;;;;;;;;;5040412;28;20056;-82
2021/06/07 07:26:09;;;;;;;25.67;16.80;;;;;;;;;;5041979;28;20658;-83
2021/06/07 07:28:54;;;;;;;22.80;17.30;;;;;;;;;;5037941;28;20021;-82
2021/06/07 07:31:39;;;;;;;23.58;16.95;;;;;;;;;;5042845;28;20017;-82
2021/06/07 07:34:25;;;;;;;24.00;16.90;;;;;;;;;;5042875;28;20028;-82
2021/06/07 07:37:10;;;;;;;23.00;17.42;;;;;;;;;;5042795;28;20020;-84
2021/06/07 07:39:56;;;;;;;36.13;30.33;;;;;;;;;;5045321;28;20580;-85
2021/06/07 07:42:41;;;;;;;25.45;18.92;;;;;;;;;;5030981;28;20426;-83
2021/06/07 07:45:27;;;;;;;21.80;17.08;;;;;;;;;;5040442;28;20029;-81
2021/06/07 07:48:13;;;;;;;23.00;16.42;;;;;;;;;;5036757;28;20029;-83
2021/06/07 07:50:58;;;;;;;22.90;15.77;;;;;;;;;;5040043;28;20462;-84
2021/06/07 07:53:43;;;;;;;24.13;16.70;;;;;;;;;;5039919;28;20088;-85
2021/06/07 07:56:28;;;;;;;22.20;16.30;;;;;;;;;;5043076;28;20082;-82
2021/06/07 07:59:14;;;;;;;24.40;18.52;;;;;;;;;;5035867;28;20361;-80
2021/06/07 08:02:00;;;;;;;23.15;16.52;;;;;;;;;;5052620;28;20216;-84
2021/06/07 08:04:47;;;;;;;19.00;15.18;;;;;;;;;;5044128;28;20511;-83
2021/06/07 08:07:32;;;;;;;22.00;16.27;;;;;;;;;;5058492;28;20408;-82
2021/06/07 08:10:18;;;;;;;20.30;14.80;;;;;;;;;;5056925;28;20088;-83
2021/06/07 08:13:03;;;;;;;19.50;14.23;;;;;;;;;;5061681;28;20056;-83
2021/06/07 08:15:49;;;;;;;19.77;14.15;;;;;;;;;;5039757;28;20085;-86
2021/06/07 08:18:34;;;;;;;18.58;14.13;;;;;;;;;;5029936;28;20013;-83
2021/06/07 08:21:20;;;;;;;17.27;13.80;;;;;;;;;;5047810;28;20053;-84
2021/06/07 08:24:05;;;;;;;16.48;12.18;;;;;;;;;;5034864;28;20239;-83
2021/06/07 08:26:51;;;;;;;17.77;13.35;;;;;;;;;;5036796;28;20029;-80
2021/06/07 08:29:36;;;;;;;16.38;12.43;;;;;;;;;;5046182;28;20028;-80
2021/06/07 08:32:22;;;;;;;21.40;15.93;;;;;;;;;;5045567;28;20108;-80
2021/06/07 08:35:08;;;;;;;18.33;14.55;;;;;;;;;;5033872;28;20035;-83
2021/06/07 08:37:54;;;;;;;21.80;14.13;;;;;;;;;;5043533;28;20028;-81
2021/06/07 08:40:39;;;;;;;17.30;11.90;;;;;;;;;;5040144;28;20503;-83
2021/06/07 08:43:25;;;;;;;16.38;10.75;;;;;;;;;;5040042;28;20044;-83
2021/06/07 08:46:10;;;;;;;13.40;9.60;;;;;;;;;;5042093;28;20020;-84
2021/06/07 08:48:56;;;;;;;11.70;8.95;;;;;;;;;;5046345;28;20439;-84
2021/06/07 08:51:41;;;;;;;12.52;8.20;;;;;;;;;;5033771;28;20025;-84
2021/06/07 08:54:26;;;;;;;11.35;8.43;;;;;;;;;;5046066;28;20021;-85
2021/06/07 08:57:12;;;;;;;12.77;8.23;;;;;;;;;;5034851;28;20020;-83
2021/06/07 08:59:57;;;;;;;10.63;7.78;;;;;;;;;;5051586;28;20021;-84
2021/06/07 09:02:43;;;;;;;11.18;7.78;;;;;;;;;;5040280;28;20048;-82
2021/06/07 09:05:29;;;;;;;12.38;7.60;;;;;;;;;;5053213;28;20025;-83
2021/06/07 09:08:15;;;;;;;12.35;8.27;;;;;;;;;;5043242;28;20031;-82
2021/06/07 09:11:11;;;;;;;12.98;9.07;;;;;;;;;;5043436;28;20506;-83
2021/06/07 09:13:57;;;;;;;12.52;8.80;;;;;;;;;;5039224;28;20064;-83
2021/06/07 09:16:42;;;;;;;14.60;10.50;;;;;;;;;;5027616;28;20053;-82
2021/06/07 09:19:29;;;;;;;13.07;9.98;;;;;;;;;;5036851;28;20185;-81
2021/06/07 09:22:21;;;;;;;16.08;11.43;;;;;;;;;;5035880;28;20021;-82
2021/06/07 09:25:11;;;;;;;13.13;10.57;;;;;;;;;;5033576;28;20539;-84
2021/06/07 09:28:14;;;;;;;17.58;12.98;;;;;;;;;;5028802;28;20060;-86
2021/06/07 09:31:00;;;;;;;16.45;12.90;;;;;;;;;;5040679;28;20482;-85
2021/06/07 09:33:49;;;;;;;20.27;16.33;;;;;;;;;;5037180;28;20029;-87
2021/06/07 09:36:35;;;;;;;19.75;14.45;;;;;;;;;;5032041;28;20056;-83
2021/06/07 09:39:24;;;;;;;20.05;14.82;;;;;;;;;;5033594;28;20029;-81
2021/06/07 09:42:10;;;;;;;21.45;14.95;;;;;;;;;;5042940;28;20463;-82
2021/06/07 09:44:55;;;;;;;18.17;13.80;;;;;;;;;;5037219;28;20075;-81
2021/06/07 09:47:40;;;;;;;19.05;14.20;;;;;;;;;;5049571;28;20020;-81
2021/06/07 09:50:25;;;;;;;18.35;14.02;;;;;;;;;;5047587;28;20024;-82
2021/06/07 09:53:11;;;;;;;22.92;16.25;;;;;;;;;;5036483;28;20028;-82
2021/06/07 09:56:01;;;;;;;20.40;14.35;;;;;;;;;;5036407;28;20454;-82
2021/06/07 09:58:47;;;;;;;19.27;14.88;;;;;;;;;;5028488;28;20036;-80
2021/06/07 10:01:42;;;;;;;20.45;14.48;;;;;;;;;;5038480;28;20020;-82
2021/06/07 10:04:46;;;;;;;16.67;13.20;;;;;;;;;;5052585;28;20029;-84
2021/06/07 10:07:32;;;;;;;20.35;16.20;;;;;;;;;;5049989;28;20025;-81
2021/06/07 10:10:19;;;;;;;17.25;14.13;;;;;;;;;;5034361;28;20452;-85
2021/06/07 10:13:09;;;;;;;23.42;16.08;;;;;;;;;;5044433;28;20025;-90
2021/06/07 10:15:54;;;;;;;;;;;;;;;;;;5038975;28;20017;-87
2021/06/07 10:18:41;;;;;;;20.95;15.20;;;;;;;;;;5052211;28;20312;-91
2021/06/07 10:21:26;;;;;;;21.13;15.52;;;;;;;;;;5051553;28;20041;-90
2021/06/07 10:24:13;;;;;;;19.00;14.32;;;;;;;;;;5040864;28;20016;-91
2021/06/07 10:26:58;;;;;;;22.63;15.13;;;;;;;;;;5034774;28;20028;-89
2021/06/07 10:29:44;;;;;;;21.20;15.38;;;;;;;;;;5043436;28;20477;-89
2021/06/07 10:32:29;;;;;;;46.95;40.05;;;;;;;;;;5040774;28;20052;-89
2021/06/07 10:35:26;;;;;;;30.92;22.10;;;;;;;;;;5038073;28;20025;-89
2021/06/07 10:38:12;;;;;;;18.13;14.60;;;;;;;;;;5044307;28;20111;-88
2021/06/07 10:41:16;;;;;;;20.33;16.42;;;;;;;;;;5046959;28;20360;-89
2021/06/07 10:44:01;;;;;;;17.80;14.30;;;;;;;;;;5039701;28;20079;-93
2021/06/07 10:46:47;;;;;;;19.42;14.35;;;;;;;;;;5049143;28;20024;-92
2021/06/07 10:49:38;;;;;;;19.55;14.60;;;;;;;;;;5051852;28;20027;-91
2021/06/07 10:52:25;;;;;;;19.92;14.77;;;;;;;;;;5054296;28;20032;-91
2021/06/07 10:55:12;;;;;;;16.48;13.15;;;;;;;;;;5046148;28;20077;-93
2021/06/07 10:58:01;;;;;;;17.90;13.75;;;;;;;;;;5048516;28;20107;-94
2021/06/07 11:00:49;;;;;;;22.17;15.25;;;;;;;;;;5042204;28;20100;-93
2021/06/07 11:03:36;;;;;;;17.23;13.68;;;;;;;;;;5047370;28;20032;-92
2021/06/07 11:06:22;;;;;;;16.15;12.27;;;;;;;;;;5047726;28;20058;-92
2021/06/07 11:09:07;;;;;;;16.52;13.38;;;;;;;;;;5034153;28;20370;-94
2021/06/07 11:11:53;;;;;;;18.05;13.07;;;;;;;;;;5040817;28;20031;-92
2021/06/07 11:20:04;;;;;;;16.52;13.57;;;;;;;;;;2789127;22;20232;-92
2021/06/07 11:23:14;;;;;;;17.48;13.85;;;;;;;;;;5025985;28;20033;-96
2021/06/07 11:26:42;;;;;;;16.42;12.98;;;;;;;;;;5020031;28;20094;-92
2021/06/07 11:29:29;;;;;;;16.50;13.20;;;;;;;;;;5006604;28;20033;-84
2021/06/07 11:32:14;;;;;;;16.85;13.50;;;;;;;;;;5041204;28;20028;-81
2021/06/07 11:35:00;;;;;;;19.10;13.95;;;;;;;;;;5077808;28;20024;-83
2021/06/07 11:37:45;;;;;;;20.35;13.45;;;;;;;;;;5080624;28;20020;-84
2021/06/07 11:40:40;;;;;;;16.92;13.32;;;;;;;;;;5087986;28;20074;-84
2021/06/07 11:43:43;;;;;;;17.65;13.93;;;;;;;;;;5078133;28;20016;-82
2021/06/07 11:46:29;;;;;;;16.67;13.38;;;;;;;;;;5081551;28;20016;-80
2021/06/07 11:49:15;;;;;;;25.38;13.02;;;;;;;;;;5078271;28;20020;-82
2021/06/07 11:52:08;;;;;;;15.82;12.85;;;;;;;;;;5075292;28;20513;-83
2021/06/07 11:54:53;;;;;;;18.50;13.20;;;;;;;;;;5075582;28;20051;-83
2021/06/07 11:57:38;;;;;;;17.33;14.30;;;;;;;;;;5077298;28;20028;-81
2021/06/07 12:00:31;;;;;;;16.58;13.52;;;;;;;;;;5069717;28;20024;-79
2021/06/07 12:03:18;;;;;;;17.92;14.00;;;;;;;;;;5079681;28;20046;-81
2021/06/07 12:06:07;;;;;;;17.58;12.95;;;;;;;;;;5079078;28;20031;-84
2021/06/07 12:09:04;;;;;;;14.52;11.65;;;;;;;;;;5082989;28;20042;-82
2021/06/07 12:11:49;;;;;;;16.52;12.35;;;;;;;;;;5073646;28;20254;-81
2021/06/07 12:14:40;;;;;;;14.40;11.35;;;;;;;;;;5071157;28;20115;-84
2021/06/07 12:17:25;;;;;;;15.10;11.95;;;;;;;;;;5053574;28;20046;-82
2021/06/07 12:20:11;;;;;;;14.43;12.10;;;;;;;;;;5054622;28;20049;-83
2021/06/07 12:23:00;;;;;;;14.90;11.90;;;;;;;;;;5051102;28;20027;-83
2021/06/07 12:28:17;;;;;;;13.95;11.48;;;;;;;;;;5046023;28;20020;-82
2021/06/07 12:28:50;;;;;;;16.15;11.93;;;;;;;;;;5046491;28;20032;-80
2021/06/07 12:31:36;;;;;;;12.63;11.02;;;;;;;;;;5048771;28;20024;-81
2021/06/07 12:34:21;;;;;;;13.18;10.93;;;;;;;;;;5046788;28;20029;-82
2021/06/07 12:37:06;;;;;;;16.30;11.82;;;;;;;;;;5038240;28;20057;-82
2021/06/07 12:40:06;;;;;;;27.20;24.27;;;;;;;;;;5038176;28;20129;-81
2021/06/07 12:42:54;;;;;;;16.95;14.65;;;;;;;;;;5022212;28;20022;-82
2021/06/07 12:45:39;;;;;;;15.30;13.02;;;;;;;;;;5030841;28;20448;-81
2021/06/07 12:48:26;;;;;;;15.93;13.00;;;;;;;;;;5031439;28;20051;-78
2021/06/07 12:51:12;;;;;;;16.42;14.02;;;;;;;;;;5050861;28;20455;-79
2021/06/07 12:53:58;;;;;;;16.38;13.70;;;;;;;;;;5053022;28;20021;-79
2021/06/07 12:56:48;;;;;;;18.90;14.85;;;;;;;;;;5034815;28;20033;-80
2021/06/07 12:59:34;;;;;;;16.25;13.50;;;;;;;;;;5049515;28;20036;-78
2021/06/07 13:02:32;;;;;;;18.75;13.68;;;;;;;;;;5052680;28;20025;-79
2021/06/07 13:05:44;;;;;;;15.98;13.00;;;;;;;;;;5052788;28;20466;-78
2021/06/07 13:08:30;;;;;;;16.83;12.52;;;;;;;;;;5057819;28;20675;-78
2021/06/07 13:11:15;;;;;;;32.55;28.67;;;;;;;;;;5057419;28;20029;-78
2021/06/07 13:14:02;;;;;;;20.58;17.00;;;;;;;;;;5055994;28;20021;-78
2021/06/07 13:16:47;;;;;;;17.75;13.77;;;;;;;;;;5047489;28;20172;-79
2021/06/07 13:19:32;;;;;;;15.40;13.20;;;;;;;;;;5049303;28;20102;-79
2021/06/07 13:22:18;;;;;;;17.27;13.50;;;;;;;;;;5042922;28;20071;-79
2021/06/07 13:25:13;;;;;;;16.42;13.65;;;;;;;;;;5051292;28;20028;-80
2021/06/07 13:28:30;;;;;;;17.65;13.68;;;;;;;;;;5040111;28;20017;-81
2021/06/07 13:31:16;;;;;;;18.20;14.10;;;;;;;;;;5014913;28;20032;-81
2021/06/07 13:34:14;;;;;;;18.17;15.00;;;;;;;;;;5049712;28;20078;-79
2021/06/07 13:37:10;;;;;;;20.48;15.40;;;;;;;;;;5055613;28;20781;-83
2021/06/07 13:39:56;;;;;;;20.55;15.35;;;;;;;;;;5048734;28;20072;-81
2021/06/07 13:42:47;;;;;;;17.55;14.63;;;;;;;;;;5050109;28;20035;-80
2021/06/07 13:48:21;;;;;;;16.10;13.70;;;;;;;;;;5044884;28;20090;-81
2021/06/07 13:51:06;;;;;;;17.83;14.52;;;;;;;;;;5045109;28;20263;-80
2021/06/07 13:53:52;;;;;;;17.85;15.30;;;;;;;;;;5041151;28;20021;-80
2021/06/07 13:56:38;;;;;;;20.20;15.32;;;;;;;;;;5055365;28;20021;-80
2021/06/07 13:59:24;;;;;;;17.30;14.32;;;;;;;;;;5043406;28;20383;-80
2021/06/07 14:02:09;;;;;;;16.33;14.13;;;;;;;;;;5056367;28;20028;-80
2021/06/07 14:04:55;;;;;;;15.30;13.02;;;;;;;;;;5043433;28;20024;-81
2021/06/07 14:07:40;;;;;;;17.25;13.75;;;;;;;;;;5047890;28;20511;-80
2021/06/07 14:10:25;;;;;;;19.83;15.05;;;;;;;;;;5038926;28;20033;-80
2021/06/07 14:13:10;;;;;;;14.82;13.30;;;;;;;;;;5043428;28;20387;-80
2021/06/07 14:15:56;;;;;;;21.00;18.52;;;;;;;;;;5046967;28;20460;-78
2021/06/07 14:18:41;;;;;;;38.45;34.38;;;;;;;;;;5036895;28;20029;-78
2021/06/07 14:21:30;;;;;;;18.73;16.17;;;;;;;;;;5026259;28;20033;-80
2021/06/07 14:27:19;;;;;;;19.98;15.70;;;;;;;;;;5029974;28;20033;-79
2021/06/07 14:30:04;;;;;;;20.25;15.52;;;;;;;;;;5007228;28;20056;-81
2021/06/07 14:32:50;;;;;;;20.50;16.58;;;;;;;;;;5020396;28;20399;-82
2021/06/07 14:35:36;;;;;;;19.42;15.40;;;;;;;;;;5000910;28;20029;-79
2021/06/07 14:38:21;;;;;;;19.80;15.80;;;;;;;;;;5013011;28;20029;-83
2021/06/07 14:41:07;;;;;;;21.33;16.75;;;;;;;;;;5008906;28;20035;-80
2021/06/07 14:43:54;;;;;;;20.13;16.40;;;;;;;;;;5012460;28;20102;-82
2021/06/07 14:46:39;;;;;;;20.15;17.50;;;;;;;;;;5013977;28;20021;-85
2021/06/07 14:49:25;;;;;;;21.73;18.13;;;;;;;;;;4999756;28;20025;-81
2021/06/07 14:52:10;;;;;;;21.27;17.20;;;;;;;;;;5011007;28;20065;-80
2021/06/07 14:54:55;;;;;;;33.65;29.33;;;;;;;;;;5011496;28;20029;-81
2021/06/07 14:57:41;;;;;;;25.13;22.08;;;;;;;;;;5015665;28;20030;-81
2021/06/07 15:00:27;;;;;;;23.75;19.27;;;;;;;;;;5002384;28;20041;-79
2021/06/07 15:03:12;;;;;;;26.33;17.98;;;;;;;;;;5013226;28;20022;-80
2021/06/07 15:05:57;;;;;;;22.55;18.35;;;;;;;;;;5010043;28;20060;-80
2021/06/07 15:08:43;;;;;;;22.35;19.08;;;;;;;;;;5017188;28;20117;-78
2021/06/07 15:11:30;;;;;;;24.08;18.60;;;;;;;;;;5014681;28;20021;-79
2021/06/07 15:14:15;;;;;;;21.42;17.50;;;;;;;;;;5015529;28;20037;-80
2021/06/07 15:17:01;;;;;;;23.48;17.65;;;;;;;;;;5013703;28;20112;-80
2021/06/07 15:19:46;;;;;;;22.02;17.35;;;;;;;;;;5025732;28;20045;-80
2021/06/07 15:22:32;;;;;;;24.08;18.40;;;;;;;;;;5034724;28;20025;-79
2021/06/07 15:25:17;;;;;;;24.60;18.45;;;;;;;;;;5035148;28;20057;-80
2021/06/07 15:28:02;;;;;;;22.60;17.50;;;;;;;;;;5031518;28;20017;-79
2021/06/07 15:30:48;;;;;;;22.52;18.85;;;;;;;;;;5036614;28;20037;-80
2021/06/07 15:33:33;;;;;;;25.95;18.65;;;;;;;;;;5045077;28;20031;-81
2021/06/07 15:36:18;;;;;;;25.50;18.25;;;;;;;;;;5035529;28;20483;-81
2021/06/07 15:39:04;;;;;;;26.48;19.27;;;;;;;;;;5035252;28;20036;-79
2021/06/07 15:41:49;;;;;;;25.08;19.65;;;;;;;;;;5032580;28;20243;-79
2021/06/07 15:44:35;;;;;;;26.35;17.85;;;;;;;;;;5038365;28;20021;-80
2021/06/07 15:47:20;;;;;;;23.73;19.23;;;;;;;;;;5035318;28;20086;-79
2021/06/07 15:50:06;;;;;;;25.73;20.60;;;;;;;;;;5038480;28;20054;-80
2021/06/07 15:52:51;;;;;;;27.13;20.80;;;;;;;;;;5039131;28;20028;-80
2021/06/07 15:55:37;;;;;;;29.42;20.52;;;;;;;;;;5042128;28;20495;-80
2021/06/07 15:58:22;;;;;;;30.33;21.75;;;;;;;;;;5034548;28;20036;-80
2021/06/07 16:01:09;;;;;;;26.77;22.23;;;;;;;;;;5041237;28;20372;-80
2021/06/07 16:03:55;;;;;;;27.30;21.17;;;;;;;;;;5033753;28;20036;-82
2021/06/07 16:06:40;;;;;;;29.77;22.13;;;;;;;;;;5035165;28;20025;-80
2021/06/07 16:09:25;;;;;;;30.35;23.42;;;;;;;;;;5036085;28;20487;-81
2021/06/07 16:12:11;;;;;;;28.73;23.20;;;;;;;;;;5044385;28;20040;-79
2021/06/07 16:14:56;;;;;;;36.70;27.73;;;;;;;;;;5033736;28;20035;-79
2021/06/07 16:17:54;;;;;;;36.72;24.27;;;;;;;;;;5032153;28;20025;-80
2021/06/07 16:23:24;;;;;;;31.27;23.95;;;;;;;;;;5033809;28;20028;-79
2021/06/07 16:26:10;;;;;;;31.50;22.73;;;;;;;;;;5038435;28;20056;-79